KMEI/MEI METAR and TAF weather

Enter ICAO airport designator
Station Type Date Time Source
KMEI METAR 2019/09/21 03:58 UTC NOAA

KMEI 210358Z AUTO 00000KT 10SM CLR 20/17 A3018 RMK AO2 SLP215 T02000167


Station Type Date Time Source
KMEI Decoded METAR 2019/09/21 03:58 UTC NOAA

MERIDIAN KEY FIELD, MS, United States (KMEI) 32-20N 088-45W 89M
Sep 20, 2019 - 11:58 PM EDT / 2019.09.21 0358 UTC
Wind: Calm:0
Visibility: 10 mile(s):0
Sky conditions: clear
Temperature: 68.0 F (20.0 C)
Dew Point: 62.1 F (16.7 C)
Relative Humidity: 81%
Pressure (altimeter): 30.18 in. Hg (1022 hPa)
ob: KMEI 210358Z AUTO 00000KT 10SM CLR 20/17 A3018 RMK AO2 SLP215 T02000167
cycle: 4

Station Type Date Time Source
KMEI TAF 2019/09/20 18:30 UTC NOAA

TAF KMEI 201727Z 2018/2118 12007KT P6SM FEW250

Example: see airport list